Time;durP1;ratioP1;P1;durP2;ratioP2;P2;SDS_P1;SDS_P2;PMS_P1;PMS_P2;Temp;Humidity;BMP_temperature;BMP_pressure;BME280_temperature;BME280_humidity;BME280_pressure;Samples;Min_cycle;Max_cycle;Signal;HPM_P1;HPM_P2
2022/03/21 00:02:25;;;;;;;13.10;10.52;;;18.20;49.80;;;;;;5084441;28;20024;-77
2022/03/21 00:04:51;;;;;;;13.63;10.32;;;18.20;49.80;;;;;;5086862;28;20097;-73
2022/03/21 00:07:18;;;;;;;12.85;10.18;;;18.20;49.80;;;;;;5084526;28;20042;-70
2022/03/21 00:09:44;;;;;;;14.63;11.15;;;18.10;49.70;;;;;;5086765;28;20035;-70
2022/03/21 00:12:12;;;;;;;14.85;10.90;;;18.10;49.70;;;;;;5084829;28;20028;-68
2022/03/21 00:14:41;;;;;;;14.65;10.50;;;18.10;49.80;;;;;;5084129;28;20503;-74
2022/03/21 00:17:07;;;;;;;13.48;9.88;;;18.10;49.90;;;;;;5084522;28;20526;-71
2022/03/21 00:19:33;;;;;;;13.95;11.35;;;18.10;49.90;;;;;;5105469;28;20032;-72
2022/03/21 00:21:58;;;;;;;13.85;10.82;;;18.00;49.90;;;;;;5085201;28;20020;-75
2022/03/21 00:24:24;;;;;;;15.18;10.55;;;18.00;49.90;;;;;;5084562;28;20450;-74
2022/03/21 00:26:50;;;;;;;13.88;10.00;;;18.00;49.90;;;;;;5085111;28;20044;-77
2022/03/21 00:29:15;;;;;;;12.65;9.88;;;18.00;49.90;;;;;;5084373;28;20099;-76
2022/03/21 00:31:41;;;;;;;12.50;10.05;;;18.00;49.90;;;;;;5086773;28;20460;-72
2022/03/21 00:34:07;;;;;;;12.48;10.07;;;18.00;49.90;;;;;;5084932;28;20475;-73
2022/03/21 00:36:34;;;;;;;16.15;11.23;;;18.00;49.90;;;;;;5084836;28;20507;-74
2022/03/21 00:39:00;;;;;;;14.73;10.70;;;18.00;49.90;;;;;;5085607;28;20020;-78
2022/03/21 00:41:25;;;;;;;15.27;10.70;;;18.00;50.50;;;;;;5086184;28;20028;-75
2022/03/21 00:43:52;;;;;;;14.15;10.57;;;18.00;49.90;;;;;;5084612;28;20036;-77
2022/03/21 00:46:18;;;;;;;17.25;11.50;;;18.00;49.80;;;;;;5083046;28;20052;-71
2022/03/21 00:48:44;;;;;;;14.75;11.18;;;17.90;49.70;;;;;;5084015;28;20062;-73
2022/03/21 00:51:10;;;;;;;14.00;10.90;;;18.00;49.80;;;;;;5086911;28;20111;-76
2022/03/21 00:53:35;;;;;;;14.35;10.70;;;18.00;49.80;;;;;;5088489;28;20429;-76
2022/03/21 00:56:02;;;;;;;14.90;11.55;;;18.00;49.70;;;;;;5087980;28;20024;-74
2022/03/21 00:58:27;;;;;;;18.27;11.57;;;18.00;49.60;;;;;;5087370;28;20035;-68
2022/03/21 01:00:53;;;;;;;16.27;11.35;;;18.00;49.60;;;;;;5088076;28;20028;-72
2022/03/21 01:03:19;;;;;;;13.30;10.73;;;18.00;49.60;;;;;;5086436;28;20058;-70
2022/03/21 01:05:45;;;;;;;15.23;11.35;;;18.00;49.50;;;;;;5094131;28;20028;-71
2022/03/21 01:08:11;;;;;;;15.25;11.57;;;18.00;49.50;;;;;;5114632;28;20016;-75
2022/03/21 01:10:37;;;;;;;14.25;10.63;;;18.00;49.50;;;;;;5106281;28;20035;-75
2022/03/21 01:13:03;;;;;;;13.82;11.85;;;18.00;49.50;;;;;;5090528;28;20115;-75
2022/03/21 01:15:29;;;;;;;14.65;10.95;;;18.00;49.50;;;;;;5087348;28;20055;-75
2022/03/21 01:17:57;;;;;;;14.80;10.27;;;18.00;49.50;;;;;;5087935;28;20542;-71
2022/03/21 01:20:23;;;;;;;15.65;11.65;;;18.00;49.50;;;;;;5087282;28;20429;-72
2022/03/21 01:22:50;;;;;;;14.93;11.35;;;18.00;49.50;;;;;;5088522;28;20032;-74
2022/03/21 01:25:16;;;;;;;14.05;11.73;;;18.00;49.30;;;;;;5086980;28;20105;-70
2022/03/21 01:27:43;;;;;;;17.20;11.68;;;18.10;49.40;;;;;;5087835;28;20095;-70
2022/03/21 01:30:11;;;;;;;15.55;11.13;;;18.10;49.70;;;;;;5087014;28;20400;-72
2022/03/21 01:32:38;;;;;;;15.13;11.68;;;18.00;50.00;;;;;;5088345;28;20032;-74
2022/03/21 01:35:06;;;;;;;14.30;10.82;;;18.10;50.30;;;;;;5087167;28;20052;-72
2022/03/21 01:37:32;;;;;;;17.92;11.43;;;18.10;50.50;;;;;;5087045;28;20407;-71
2022/03/21 01:39:58;;;;;;;16.13;11.25;;;18.10;50.70;;;;;;5091857;28;20039;-70
2022/03/21 01:42:23;;;;;;;13.88;10.95;;;18.10;50.70;;;;;;5085416;28;20058;-70
2022/03/21 01:44:55;;;;;;;16.05;11.27;;;18.10;50.70;;;;;;5086996;28;20109;-70
2022/03/21 01:47:21;;;;;;;14.68;10.82;;;18.10;50.80;;;;;;5086624;28;20142;-70
2022/03/21 01:49:46;;;;;;;14.15;10.52;;;18.10;50.70;;;;;;5086920;28;20050;-72
2022/03/21 01:52:13;;;;;;;15.02;11.13;;;18.10;50.80;;;;;;5086720;28;20089;-71
2022/03/21 01:57:36;;;;;;;17.23;11.57;;;18.10;50.80;;;;;;5013950;28;20529;-73
2022/03/21 02:00:04;;;;;;;14.95;11.52;;;18.10;50.80;;;;;;5086067;28;20024;-76
2022/03/21 02:02:29;;;;;;;13.98;10.02;;;18.10;50.70;;;;;;5085679;28;20027;-69
2022/03/21 02:04:55;;;;;;;15.63;11.15;;;18.10;50.70;;;;;;5085376;28;20023;-70
2022/03/21 02:07:21;;;;;;;15.40;11.77;;;18.10;50.60;;;;;;5085982;28;20024;-76
2022/03/21 02:09:47;;;;;;;14.10;10.40;;;18.10;50.60;;;;;;5088655;28;20035;-72
2022/03/21 02:12:13;;;;;;;17.08;11.57;;;18.10;50.50;;;;;;5086379;28;20020;-73
2022/03/21 02:14:39;;;;;;;14.43;11.00;;;18.10;50.50;;;;;;5085089;28;20044;-74
2022/03/21 02:17:06;;;;;;;16.42;11.57;;;18.10;50.40;;;;;;5086640;28;20065;-75
2022/03/21 02:19:34;;;;;;;13.80;10.93;;;18.10;50.40;;;;;;5086371;28;20043;-75
2022/03/21 02:22:32;;;;;;;14.57;10.18;;;18.10;50.40;;;;;;5087404;28;20024;-78
2022/03/21 02:25:22;;;;;;;13.48;10.50;;;18.10;50.40;;;;;;5085268;28;20073;-75
2022/03/21 02:27:50;;;;;;;14.23;10.77;;;18.10;50.40;;;;;;5084718;28;20394;-72
2022/03/21 02:30:16;;;;;;;14.07;10.68;;;18.10;50.30;;;;;;5086060;28;20028;-77
2022/03/21 02:32:42;;;;;;;12.52;9.75;;;18.10;50.40;;;;;;5086341;28;20028;-77
2022/03/21 02:35:09;;;;;;;14.60;10.82;;;18.10;50.30;;;;;;5086316;28;20068;-80
2022/03/21 02:37:37;;;;;;;12.35;10.07;;;18.10;50.20;;;;;;5086913;28;20016;-76
2022/03/21 02:40:04;;;;;;;13.57;10.13;;;18.10;50.20;;;;;;5090992;28;20020;-72
2022/03/21 02:42:30;;;;;;;12.50;9.88;;;18.10;50.10;;;;;;5086069;28;20016;-73
2022/03/21 02:44:56;;;;;;;14.68;10.15;;;18.10;50.10;;;;;;5085704;28;20032;-74
2022/03/21 02:47:22;;;;;;;14.32;9.80;;;18.10;50.00;;;;;;5085584;28;20119;-76
2022/03/21 02:49:48;;;;;;;12.50;9.50;;;18.10;50.00;;;;;;5085625;28;20095;-72
2022/03/21 02:52:16;;;;;;;14.20;10.15;;;18.10;49.90;;;;;;5087001;28;20028;-75
2022/03/21 02:54:41;;;;;;;12.60;9.93;;;18.10;49.90;;;;;;5085775;28;20093;-70
2022/03/21 02:57:07;;;;;;;13.45;9.52;;;18.10;49.90;;;;;;5085835;28;20020;-74
2022/03/21 02:59:33;;;;;;;11.93;9.20;;;18.10;49.90;;;;;;5085834;28;20032;-71
2022/03/21 03:01:59;;;;;;;11.00;9.20;;;18.10;49.80;;;;;;5086087;28;20020;-73
2022/03/21 03:04:25;;;;;;;10.90;8.57;;;18.10;49.80;;;;;;5085676;28;20030;-71
2022/03/21 03:06:51;;;;;;;11.52;8.82;;;18.10;49.70;;;;;;5084708;28;20054;-71
2022/03/21 03:09:17;;;;;;;13.18;9.63;;;18.10;49.70;;;;;;5085719;28;20028;-76
2022/03/21 03:11:43;;;;;;;12.18;9.30;;;18.10;49.60;;;;;;5085526;28;20040;-74
2022/03/21 03:14:09;;;;;;;12.43;9.25;;;18.10;49.60;;;;;;5084803;28;20032;-72
2022/03/21 03:16:35;;;;;;;11.77;9.40;;;18.10;49.50;;;;;;5085160;28;20071;-74
2022/03/21 03:19:01;;;;;;;11.45;8.70;;;18.10;49.70;;;;;;5085275;28;20031;-69
2022/03/21 03:21:33;;;;;;;9.68;8.20;;;18.10;49.50;;;;;;5085044;28;21462;-73
2022/03/21 03:24:00;;;;;;;9.95;7.85;;;18.10;49.50;;;;;;5084753;28;20021;-74
2022/03/21 03:26:26;;;;;;;11.90;8.82;;;18.10;49.50;;;;;;5084608;28;20028;-72
2022/03/21 03:28:51;;;;;;;11.57;9.18;;;18.10;49.50;;;;;;5085095;28;20024;-76
2022/03/21 03:31:18;;;;;;;11.45;9.15;;;18.10;49.50;;;;;;5084585;28;20544;-74
2022/03/21 03:33:45;;;;;;;12.48;9.13;;;18.10;49.50;;;;;;5085063;28;20036;-67
2022/03/21 03:36:13;;;;;;;11.95;8.35;;;18.10;49.40;;;;;;5083682;28;20042;-70
2022/03/21 03:38:39;;;;;;;12.75;9.48;;;18.10;49.40;;;;;;5085688;28;20092;-72
2022/03/21 03:41:04;;;;;;;10.93;8.13;;;18.10;49.30;;;;;;5085685;28;20031;-69
2022/03/21 03:43:31;;;;;;;10.98;7.75;;;18.10;49.30;;;;;;5087229;28;20044;-69
2022/03/21 03:45:58;;;;;;;10.50;7.85;;;18.10;49.20;;;;;;5084960;28;21372;-71
2022/03/21 03:48:24;;;;;;;11.00;8.68;;;18.10;49.20;;;;;;5084573;28;20104;-70
2022/03/21 03:50:50;;;;;;;12.10;8.65;;;18.10;49.20;;;;;;5084788;28;20031;-71
2022/03/21 03:53:18;;;;;;;10.48;7.60;;;18.10;49.20;;;;;;5085242;28;20040;-69
2022/03/21 03:55:44;;;;;;;11.40;8.75;;;18.10;49.10;;;;;;5084610;28;20020;-73
2022/03/21 03:58:10;;;;;;;11.65;8.60;;;18.10;49.60;;;;;;5085099;28;20032;-76
2022/03/21 04:00:36;;;;;;;10.13;7.93;;;18.10;49.00;;;;;;5084754;28;20357;-71
2022/03/21 04:05:46;;;;;;;12.15;8.00;;;18.10;48.90;;;;;;5087274;28;20043;-70
2022/03/21 04:08:12;;;;;;;9.82;7.85;;;18.10;48.90;;;;;;5084740;28;20020;-77
2022/03/21 04:10:37;;;;;;;10.27;7.97;;;18.10;49.00;;;;;;5084412;28;20072;-75
2022/03/21 04:13:03;;;;;;;11.15;8.05;;;18.10;48.90;;;;;;5084574;28;20063;-71
2022/03/21 04:15:29;;;;;;;9.45;7.97;;;18.10;49.00;;;;;;5084956;28;20399;-76
2022/03/21 04:18:02;;;;;;;9.63;7.50;;;18.10;48.80;;;;;;5086015;28;20033;-70
2022/03/21 04:20:31;;;;;;;10.25;7.65;;;18.10;48.80;;;;;;5085224;28;20047;-69
2022/03/21 04:22:57;;;;;;;9.70;7.63;;;18.10;48.80;;;;;;5084960;28;20507;-72
2022/03/21 04:25:23;;;;;;;9.55;7.57;;;18.10;48.80;;;;;;5087720;28;20093;-71
2022/03/21 04:27:48;;;;;;;9.63;7.63;;;18.10;48.70;;;;;;5087965;28;20519;-72
2022/03/21 04:30:14;;;;;;;10.88;7.25;;;18.10;48.70;;;;;;5088589;28;20039;-72
2022/03/21 04:32:40;;;;;;;10.35;8.02;;;18.10;48.70;;;;;;5089869;28;20073;-71
2022/03/21 04:35:06;;;;;;;9.23;7.47;;;18.00;48.50;;;;;;5091360;28;20357;-73
2022/03/21 04:37:32;;;;;;;8.80;7.00;;;18.10;48.50;;;;;;5088610;28;20028;-69
2022/03/21 04:39:58;;;;;;;10.10;7.43;;;18.10;48.50;;;;;;5091855;28;21575;-69
2022/03/21 04:42:24;;;;;;;8.55;6.95;;;18.10;48.40;;;;;;5090679;28;20024;-69
2022/03/21 04:44:50;;;;;;;9.88;7.55;;;18.10;48.40;;;;;;5088793;28;20031;-70
2022/03/21 04:47:17;;;;;;;11.00;7.65;;;18.10;48.40;;;;;;5088538;28;20032;-75
2022/03/21 04:49:44;;;;;;;10.18;7.70;;;18.10;48.30;;;;;;5091116;28;20043;-74
2022/03/21 04:52:10;;;;;;;8.48;7.05;;;18.10;48.30;;;;;;5087881;28;20109;-72
2022/03/21 04:54:35;;;;;;;10.27;7.78;;;18.00;48.20;;;;;;5086413;28;20067;-75
2022/03/21 04:57:01;;;;;;;9.32;7.07;;;18.00;48.20;;;;;;5088235;28;20020;-71
2022/03/21 04:59:27;;;;;;;8.73;7.25;;;18.00;48.10;;;;;;5088204;28;20024;-69
2022/03/21 05:01:52;;;;;;;9.65;6.85;;;18.10;48.10;;;;;;5087661;28;20036;-78
2022/03/21 05:04:22;;;;;;;9.27;7.30;;;18.10;48.10;;;;;;5088685;28;20040;-69
2022/03/21 05:06:48;;;;;;;10.15;8.40;;;18.00;48.00;;;;;;5087873;28;20047;-68
2022/03/21 05:09:14;;;;;;;12.57;9.40;;;18.00;48.00;;;;;;5089902;28;20013;-69
2022/03/21 05:11:40;;;;;;;12.40;9.63;;;18.00;48.10;;;;;;5086465;28;20407;-68
2022/03/21 05:14:06;;;;;;;14.77;10.10;;;18.00;48.00;;;;;;5087971;28;20035;-70
2022/03/21 05:16:32;;;;;;;12.80;10.32;;;18.00;48.00;;;;;;5088065;28;20110;-70
2022/03/21 05:18:58;;;;;;;13.90;11.10;;;18.00;48.00;;;;;;5087984;28;20035;-69
2022/03/21 05:21:23;;;;;;;12.73;9.75;;;18.00;47.90;;;;;;5086405;28;20415;-70
2022/03/21 05:32:02;;;;;;;12.43;10.35;;;18.00;47.80;;;;;;5087707;28;20066;-73
2022/03/21 05:37:12;;;;;;;12.68;9.68;;;18.00;47.70;;;;;;5087548;28;20070;-71
2022/03/21 05:40:31;;;;;;;11.65;9.27;;;18.00;47.60;;;;;;5090122;28;20036;-71
2022/03/21 05:42:24;;;;;;;12.48;9.32;;;18.00;47.60;;;;;;5089004;28;20380;-76
2022/03/21 05:44:49;;;;;;;11.82;9.13;;;18.00;47.60;;;;;;5087614;28;20031;-72
2022/03/21 05:47:15;;;;;;;11.88;9.20;;;18.00;47.60;;;;;;5089606;28;20043;-75
2022/03/21 05:49:40;;;;;;;10.98;9.10;;;18.00;47.50;;;;;;5086968;28;20051;-72
2022/03/21 05:52:06;;;;;;;11.23;8.73;;;18.00;47.40;;;;;;5088329;28;20114;-71
2022/03/21 05:54:32;;;;;;;11.68;8.73;;;18.00;47.40;;;;;;5087066;28;20048;-70
2022/03/21 05:56:58;;;;;;;11.30;7.80;;;18.00;47.40;;;;;;5088384;28;20024;-71
2022/03/21 06:02:08;;;;;;;10.35;7.93;;;18.00;47.40;;;;;;5086024;28;20057;-72
2022/03/21 06:04:33;;;;;;;11.07;8.68;;;17.90;47.30;;;;;;5088813;28;20119;-77
2022/03/21 06:06:59;;;;;;;12.50;8.80;;;17.90;47.40;;;;;;5087268;28;20099;-77
2022/03/21 06:09:25;;;;;;;11.98;8.23;;;18.00;47.40;;;;;;5089023;28;20062;-70
2022/03/21 06:11:50;;;;;;;11.13;8.25;;;17.90;47.40;;;;;;5088219;28;20055;-74
2022/03/21 06:14:20;;;;;;;9.45;7.40;;;17.90;47.30;;;;;;5087354;28;20036;-71
2022/03/21 06:16:47;;;;;;;10.90;8.18;;;17.90;47.30;;;;;;5090754;28;20107;-73
2022/03/21 06:19:13;;;;;;;10.57;8.15;;;17.90;47.20;;;;;;5091327;28;20038;-74
2022/03/21 06:21:38;;;;;;;11.13;7.93;;;17.90;47.20;;;;;;5092618;28;20039;-69
2022/03/21 06:24:04;;;;;;;10.38;7.47;;;17.90;47.20;;;;;;5092736;28;20074;-75
2022/03/21 06:26:30;;;;;;;11.02;8.95;;;17.90;47.10;;;;;;5092473;28;20032;-75
2022/03/21 06:28:55;;;;;;;10.38;8.10;;;17.90;47.00;;;;;;5091159;28;20032;-70
2022/03/21 06:31:21;;;;;;;11.05;8.43;;;17.90;47.00;;;;;;5091938;28;20024;-72
2022/03/21 06:33:47;;;;;;;9.68;7.72;;;17.90;47.00;;;;;;5092074;28;20097;-70
2022/03/21 06:36:14;;;;;;;10.13;7.32;;;17.90;47.00;;;;;;5091200;28;20028;-71
2022/03/21 06:38:40;;;;;;;9.65;7.88;;;17.90;47.10;;;;;;5092289;28;20026;-71
2022/03/21 06:41:06;;;;;;;11.07;7.57;;;17.90;47.00;;;;;;5092159;28;20028;-73
2022/03/21 06:43:32;;;;;;;12.38;8.07;;;17.90;47.00;;;;;;5091499;28;20021;-69
2022/03/21 06:45:58;;;;;;;13.35;8.70;;;17.90;47.00;;;;;;5092116;28;20027;-69
2022/03/21 06:48:25;;;;;;;9.05;7.03;;;17.90;47.00;;;;;;5080605;28;20064;-70
2022/03/21 06:50:53;;;;;;;8.88;7.32;;;17.90;47.10;;;;;;5072858;28;20032;-73
2022/03/21 06:53:19;;;;;;;13.18;8.05;;;17.90;47.40;;;;;;5092132;28;20021;-70
2022/03/21 06:55:45;;;;;;;10.52;7.30;;;17.90;47.30;;;;;;5092217;28;20028;-73
2022/03/21 06:58:13;;;;;;;9.80;6.72;;;17.90;47.40;;;;;;5091592;28;20028;-71
2022/03/21 07:00:39;;;;;;;9.55;6.75;;;18.00;47.50;;;;;;5106189;28;20028;-74
2022/03/21 07:03:06;;;;;;;9.45;6.78;;;17.90;47.50;;;;;;5103753;28;20028;-71
2022/03/21 07:05:32;;;;;;;9.50;6.70;;;18.00;47.70;;;;;;5112360;28;20027;-72
2022/03/21 07:07:57;;;;;;;9.38;7.22;;;18.00;47.80;;;;;;5112420;28;20547;-71
2022/03/21 07:10:23;;;;;;;18.15;7.10;;;18.00;47.90;;;;;;5111015;28;20039;-71
2022/03/21 07:12:49;;;;;;;11.50;7.07;;;18.00;47.90;;;;;;5112166;28;20023;-72
2022/03/21 07:15:15;;;;;;;11.65;6.93;;;18.00;48.00;;;;;;5101975;28;20028;-75
2022/03/21 07:17:44;;;;;;;9.55;7.75;;;18.00;48.50;;;;;;5088611;28;20023;-79
2022/03/21 07:20:12;;;;;;;12.15;7.53;;;18.10;48.40;;;;;;5089868;28;20054;-78
2022/03/21 07:22:38;;;;;;;11.50;8.05;;;18.10;48.20;;;;;;5088821;28;20491;-77
2022/03/21 07:25:06;;;;;;;9.48;7.93;;;18.10;48.20;;;;;;5090119;28;20020;-73
2022/03/21 07:27:32;;;;;;;19.10;7.38;;;18.10;48.10;;;;;;5089902;28;20020;-70
2022/03/21 07:29:58;;;;;;;10.13;7.50;;;18.10;48.00;;;;;;5090033;28;20103;-71
2022/03/21 07:32:24;;;;;;;13.95;7.93;;;18.10;48.00;;;;;;5090005;28;20099;-70
2022/03/21 07:34:49;;;;;;;13.38;7.07;;;18.10;47.90;;;;;;5089730;28;20032;-69
2022/03/21 07:37:15;;;;;;;15.10;6.70;;;18.10;47.80;;;;;;5089738;28;20024;-74
2022/03/21 07:39:44;;;;;;;15.98;7.50;;;18.10;47.80;;;;;;5089340;28;20032;-72
2022/03/21 07:42:14;;;;;;;14.43;8.07;;;18.10;47.90;;;;;;5089666;28;20106;-69
2022/03/21 07:47:24;;;;;;;11.73;7.38;;;18.20;48.10;;;;;;5091278;28;20157;-78
2022/03/21 07:49:53;;;;;;;10.73;6.70;;;18.20;48.30;;;;;;5091277;28;20111;-72
2022/03/21 07:52:20;;;;;;;9.15;6.45;;;;;;;;;;5091779;28;20560;-75
2022/03/21 07:54:53;;;;;;;12.60;6.15;;;18.20;47.50;;;;;;5095456;28;20157;-76
2022/03/21 07:57:23;;;;;;;10.48;7.65;;;18.20;47.80;;;;;;5090413;28;20031;-72
2022/03/21 07:59:50;;;;;;;16.92;9.43;;;;;;;;;;5086300;28;20036;-73
2022/03/21 08:02:19;;;;;;;17.35;9.55;;;;;;;;;;5089555;28;20475;-74
2022/03/21 08:04:46;;;;;;;18.13;9.60;;;;;;;;;;5090067;28;20483;-77
2022/03/21 08:07:12;;;;;;;14.02;9.30;;;18.40;48.10;;;;;;5089814;28;20039;-71
2022/03/21 08:09:38;;;;;;;15.90;10.15;;;18.40;48.80;;;;;;5089655;28;20036;-70
2022/03/21 08:12:04;;;;;;;13.10;8.80;;;18.40;48.80;;;;;;5089325;28;20070;-75
2022/03/21 08:14:29;;;;;;;14.38;9.00;;;18.40;49.40;;;;;;5089440;28;20134;-79
2022/03/21 08:16:55;;;;;;;11.93;7.72;;;18.50;49.10;;;;;;5088903;28;20548;-77
2022/03/21 08:19:24;;;;;;;17.88;8.40;;;18.50;49.20;;;;;;5087950;28;20031;-73
2022/03/21 08:21:53;;;;;;;12.60;8.70;;;18.50;49.30;;;;;;5089687;28;20441;-72
2022/03/21 08:24:19;;;;;;;11.55;7.95;;;18.50;49.30;;;;;;5088696;28;20472;-78
2022/03/21 08:26:45;;;;;;;11.20;7.70;;;18.50;49.10;;;;;;5090387;28;20039;-71
2022/03/21 08:29:10;;;;;;;12.65;7.65;;;18.60;49.10;;;;;;5091151;28;20503;-70
2022/03/21 08:31:36;;;;;;;9.75;6.82;;;18.60;49.00;;;;;;5090664;28;20024;-77
2022/03/21 08:34:03;;;;;;;13.90;7.30;;;18.60;49.00;;;;;;5090844;28;20029;-80
2022/03/21 08:36:29;;;;;;;11.57;7.35;;;18.60;49.00;;;;;;5090980;28;20028;-74
2022/03/21 08:38:55;;;;;;;12.48;7.07;;;18.60;49.00;;;;;;5090234;28;20032;-75
2022/03/21 08:41:21;;;;;;;8.77;6.65;;;18.60;48.90;;;;;;5090556;28;20036;-73
2022/03/21 08:43:48;;;;;;;9.77;6.38;;;18.70;48.90;;;;;;5090929;28;20020;-80
2022/03/21 08:46:13;;;;;;;10.88;6.60;;;18.70;49.00;;;;;;5090459;28;20031;-79
2022/03/21 08:51:23;;;;;;;12.07;6.38;;;18.70;48.80;;;;;;5089812;28;20027;-70
2022/03/21 08:53:50;;;;;;;11.20;6.47;;;18.70;48.70;;;;;;5088720;28;20044;-70
2022/03/21 08:56:17;;;;;;;9.20;6.57;;;18.70;48.70;;;;;;5090344;28;20099;-73
2022/03/21 08:58:42;;;;;;;10.30;6.00;;;18.80;48.80;;;;;;5089653;28;20154;-71
2022/03/21 09:01:08;;;;;;;11.05;6.55;;;18.80;48.60;;;;;;5090077;28;20106;-72
2022/03/21 09:03:34;;;;;;;13.27;6.40;;;18.80;48.50;;;;;;5089913;28;20096;-71
2022/03/21 09:05:59;;;;;;;9.82;6.70;;;18.80;48.60;;;;;;5090561;28;20013;-71
2022/03/21 09:08:25;;;;;;;11.30;6.45;;;18.80;48.60;;;;;;5090629;28;20418;-71
2022/03/21 09:10:52;;;;;;;12.00;5.68;;;18.80;48.50;;;;;;5092600;28;20047;-71
2022/03/21 09:13:18;;;;;;;14.40;6.32;;;18.80;48.40;;;;;;5095046;28;20028;-72
2022/03/21 09:15:44;;;;;;;8.88;6.15;;;18.80;48.30;;;;;;5100118;28;20032;-71
2022/03/21 09:18:10;;;;;;;9.45;6.18;;;18.80;48.20;;;;;;5092941;28;20047;-71
2022/03/21 09:20:36;;;;;;;8.57;5.97;;;18.80;48.10;;;;;;5093392;28;20427;-71
2022/03/21 09:23:01;;;;;;;8.05;5.68;;;18.90;48.10;;;;;;5093242;28;20027;-71
2022/03/21 09:25:27;;;;;;;7.72;5.70;;;18.80;48.00;;;;;;5092811;28;20470;-71
2022/03/21 09:27:52;;;;;;;7.65;5.78;;;18.90;48.00;;;;;;5107350;28;20039;-72
2022/03/21 09:30:18;;;;;;;8.20;5.82;;;18.90;47.90;;;;;;5114409;28;20023;-71
2022/03/21 09:32:44;;;;;;;8.32;6.07;;;18.80;47.90;;;;;;5113887;28;20111;-72
2022/03/21 09:35:10;;;;;;;8.07;5.55;;;18.80;47.80;;;;;;5113908;28;20036;-73
2022/03/21 09:37:36;;;;;;;9.32;5.68;;;18.80;47.80;;;;;;5112585;28;20031;-72
2022/03/21 09:40:03;;;;;;;8.82;6.00;;;18.80;47.80;;;;;;5114394;28;20020;-72
2022/03/21 09:42:28;;;;;;;7.88;5.47;;;18.80;47.80;;;;;;5100003;28;20024;-72
2022/03/21 09:44:54;;;;;;;7.70;5.57;;;18.90;47.80;;;;;;5101564;28;20020;-72
2022/03/21 09:50:11;;;;;;;8.25;5.38;;;18.80;47.70;;;;;;5094880;28;20066;-73
2022/03/21 09:52:38;;;;;;;7.25;5.00;;;18.80;47.70;;;;;;5092133;28;20515;-72
2022/03/21 09:55:05;;;;;;;8.27;5.72;;;18.80;47.70;;;;;;5090993;28;20068;-72
2022/03/21 09:57:31;;;;;;;7.18;5.07;;;18.80;47.60;;;;;;5092237;28;20012;-71
2022/03/21 09:59:58;;;;;;;8.48;5.57;;;18.80;47.60;;;;;;5099386;28;20066;-72
2022/03/21 10:02:24;;;;;;;7.70;5.53;;;18.90;47.60;;;;;;5094746;28;20483;-73
2022/03/21 10:04:50;;;;;;;9.02;5.68;;;18.80;47.50;;;;;;5096142;28;20016;-75
2022/03/21 10:07:24;;;;;;;7.68;5.15;;;18.90;47.50;;;;;;5113358;28;20024;-73
2022/03/21 10:10:06;;;;;;;7.68;4.95;;;18.90;47.40;;;;;;5113529;28;20019;-74
2022/03/21 10:12:32;;;;;;;6.82;4.97;;;18.90;47.40;;;;;;5094062;28;20028;-73
2022/03/21 10:14:59;;;;;;;8.50;5.75;;;18.90;47.30;;;;;;5105461;28;20028;-73
2022/03/21 10:17:25;;;;;;;6.55;5.20;;;18.90;47.20;;;;;;5093557;28;20053;-72
2022/03/21 10:19:52;;;;;;;7.22;5.15;;;18.90;47.20;;;;;;5092627;28;20107;-73
2022/03/21 10:22:33;;;;;;;6.78;5.15;;;19.00;47.20;;;;;;5091614;28;20028;-72
2022/03/21 10:25:04;;;;;;;8.63;5.15;;;19.00;47.20;;;;;;5091879;28;20031;-72
2022/03/21 10:27:33;;;;;;;7.28;5.43;;;19.00;47.20;;;;;;5092146;28;20020;-72
2022/03/21 10:30:18;;;;;;;9.07;5.07;;;19.00;47.10;;;;;;5092712;28;20480;-72
2022/03/21 10:32:52;;;;;;;6.68;4.85;;;19.00;47.10;;;;;;5092462;28;20376;-73
2022/03/21 10:35:22;;;;;;;8.75;5.82;;;19.10;47.10;;;;;;5091359;28;20495;-72
2022/03/21 10:37:52;;;;;;;6.65;4.85;;;19.10;47.00;;;;;;5091879;28;20051;-74
2022/03/21 10:40:25;;;;;;;6.95;4.55;;;19.10;47.00;;;;;;5092155;28;20060;-71
2022/03/21 10:43:06;;;;;;;7.95;5.03;;;19.10;46.90;;;;;;5093209;28;20032;-73
2022/03/21 10:45:35;;;;;;;6.68;4.55;;;19.20;47.00;;;;;;5104586;28;20053;-72
2022/03/21 10:48:05;;;;;;;6.53;4.88;;;19.10;46.90;;;;;;5100019;28;20020;-73
2022/03/21 10:50:33;;;;;;;7.88;5.70;;;19.20;46.90;;;;;;5095725;28;20032;-72
2022/03/21 10:53:10;;;;;;;6.68;4.82;;;19.20;46.80;;;;;;5091401;28;20036;-73
2022/03/21 10:55:37;;;;;;;6.38;4.60;;;19.30;46.80;;;;;;5091295;28;20038;-72
2022/03/21 10:58:04;;;;;;;7.63;4.97;;;19.40;46.80;;;;;;5092268;28;20388;-73
2022/03/21 11:00:30;;;;;;;6.03;4.95;;;19.40;46.70;;;;;;5091955;28;20028;-72
2022/03/21 11:03:05;;;;;;;7.65;5.50;;;19.40;46.60;;;;;;5111896;28;20022;-72
2022/03/21 11:05:34;;;;;;;6.78;4.75;;;19.40;46.50;;;;;;5092128;28;20035;-73
2022/03/21 11:08:43;;;;;;;6.20;4.60;;;19.50;46.60;;;;;;5092074;28;20048;-72
2022/03/21 11:11:10;;;;;;;6.75;5.32;;;19.50;46.50;;;;;;5089029;28;20149;-72
2022/03/21 11:13:38;;;;;;;7.30;4.88;;;19.50;46.50;;;;;;5091574;28;20481;-72
2022/03/21 11:16:05;;;;;;;7.03;4.55;;;19.50;46.50;;;;;;5091843;28;20028;-72
2022/03/21 11:18:30;;;;;;;8.65;5.32;;;19.50;46.40;;;;;;5110576;28;20104;-72
2022/03/21 11:20:57;;;;;;;6.90;5.25;;;19.60;46.40;;;;;;5111537;28;20106;-72
2022/03/21 11:23:25;;;;;;;7.22;5.10;;;19.60;46.30;;;;;;5100796;28;20388;-72
2022/03/21 11:26:03;;;;;;;7.97;5.80;;;19.70;46.30;;;;;;5089600;28;20028;-72
2022/03/21 11:29:06;;;;;;;8.00;4.72;;;19.70;46.10;;;;;;5091658;28;20114;-71
2022/03/21 11:32:10;;;;;;;10.82;5.78;;;19.80;46.20;;;;;;5105720;28;20028;-71
2022/03/21 11:34:42;;;;;;;8.52;5.65;;;19.90;46.50;;;;;;5069015;28;20043;-70
2022/03/21 11:37:27;;;;;;;6.82;5.22;;;19.90;46.60;;;;;;5101066;28;20024;-70
2022/03/21 11:40:23;;;;;;;9.23;5.55;;;20.00;46.60;;;;;;5081815;28;20415;-70
2022/03/21 11:42:50;;;;;;;10.32;5.18;;;20.10;46.50;;;;;;5089409;28;20034;-73
2022/03/21 11:45:31;;;;;;;8.23;5.75;;;20.20;46.60;;;;;;5091460;28;20890;-74
2022/03/21 11:48:19;;;;;;;9.32;5.63;;;20.20;46.70;;;;;;5091446;28;20027;-73
2022/03/21 11:51:07;;;;;;;11.52;5.82;;;20.30;46.60;;;;;;5090964;28;20144;-73
2022/03/21 11:53:33;;;;;;;11.60;4.95;;;20.40;46.50;;;;;;5089777;28;20499;-74
2022/03/21 11:56:00;;;;;;;10.75;5.72;;;20.50;46.40;;;;;;5091186;28;20028;-73
2022/03/21 11:58:40;;;;;;;14.80;7.05;;;20.70;46.20;;;;;;5073696;28;20358;-71
2022/03/21 12:01:18;;;;;;;23.67;12.95;;;20.80;46.30;;;;;;5071115;28;20488;-73
2022/03/21 12:03:44;;;;;;;35.72;24.30;;;20.90;46.60;;;;;;5070788;28;20078;-73
2022/03/21 12:06:31;;;;;;;39.25;23.10;;;21.00;47.50;;;;;;5071695;28;20024;-74
2022/03/21 12:09:15;;;;;;;39.28;23.77;;;21.10;47.30;;;;;;5091054;28;20038;-73
2022/03/21 12:11:41;;;;;;;42.60;26.95;;;21.20;47.50;;;;;;5090887;28;20511;-74
2022/03/21 12:14:36;;;;;;;50.72;30.42;;;21.30;47.50;;;;;;5091017;28;20512;-74
2022/03/21 12:17:02;;;;;;;50.95;29.23;;;21.40;47.40;;;;;;5091186;28;20017;-73
2022/03/21 12:19:50;;;;;;;41.63;25.42;;;21.60;47.10;;;;;;5090988;28;20510;-75
2022/03/21 12:22:33;;;;;;;39.53;24.42;;;21.80;46.90;;;;;;5079045;28;20021;-72
2022/03/21 12:25:17;;;;;;;43.28;23.00;;;22.00;46.60;;;;;;5086243;28;20033;-73
2022/03/21 12:27:57;;;;;;;37.25;22.73;;;22.10;46.20;;;;;;5070642;28;20021;-75
2022/03/21 12:30:30;;;;;;;28.17;19.13;;;22.10;46.20;;;;;;5070953;28;20075;-74
2022/03/21 12:33:05;;;;;;;33.38;19.73;;;22.30;45.80;;;;;;5085718;28;20025;-73
2022/03/21 12:35:45;;;;;;;31.95;19.92;;;22.60;45.40;;;;;;5080772;28;20094;-73
2022/03/21 12:38:22;;;;;;;29.63;19.02;;;23.20;44.70;;;;;;5086337;28;20047;-73
2022/03/21 12:40:52;;;;;;;30.08;19.27;;;;;;;;;;5086533;28;20666;-71
2022/03/21 12:43:22;;;;;;;25.05;16.88;;;;;;;;;;5089321;28;20028;-72
2022/03/21 12:45:50;;;;;;;22.10;16.08;;;;;;;;;;5089229;28;20028;-71
2022/03/21 12:48:20;;;;;;;25.60;15.52;;;;;;;;;;5093534;28;20031;-71
2022/03/21 12:50:49;;;;;;;27.42;16.05;;;;;;;;;;5092669;28;20028;-71
2022/03/21 12:53:18;;;;;;;23.85;15.07;;;;;;;;;;5090999;28;20051;-71
2022/03/21 12:55:45;;;;;;;21.80;13.18;;;;;;;;;;5090081;28;20031;-71
2022/03/21 12:58:13;;;;;;;20.05;13.43;;;;;;;;;;5089171;28;20027;-72
2022/03/21 13:00:40;;;;;;;17.52;13.23;;;;;;;;;;5089020;28;20056;-71
2022/03/21 13:03:16;;;;;;;21.52;12.57;;;;;;;;;;5074001;28;20023;-72
2022/03/21 13:11:23;;;;;;;16.65;11.05;;;;;;;;;;5097997;28;20410;-71
2022/03/21 13:13:53;;;;;;;19.73;11.48;;;;;;;;;;5112700;28;20036;-71
2022/03/21 13:16:23;;;;;;;17.48;10.82;;;;;;;;;;5114459;28;20016;-71
2022/03/21 13:18:52;;;;;;;16.38;9.52;;;;;;;;;;5110839;28;20032;-71
2022/03/21 13:21:19;;;;;;;15.23;9.43;;;;;;;;;;5093828;28;20467;-71
2022/03/21 13:23:45;;;;;;;13.43;9.60;;;;;;;;;;5093695;28;20028;-71